Time;durP1;ratioP1;P1;durP2;ratioP2;P2;SDS_P1;SDS_P2;PMS_P1;PMS_P2;Temp;Humidity;BMP_temperature;BMP_pressure;BME280_temperature;BME280_humidity;BME280_pressure;Samples;Min_cycle;Max_cycle;Signal;HPM_P1;HPM_P2
2023/01/04 00:01:21;;;;;;;12.83;2.67;;;28.40;99.90;;;;;;5071439;28;20187;-72
2023/01/04 00:03:49;;;;;;;13.40;2.73;;;28.50;99.90;;;;;;5084625;28;20230;-68
2023/01/04 00:06:17;;;;;;;9.37;2.20;;;29.00;99.90;;;;;;5071504;28;20211;-72
2023/01/04 00:08:44;;;;;;;10.30;2.20;;;28.60;99.90;;;;;;5071826;28;20180;-71
2023/01/04 00:11:18;;;;;;;10.40;2.20;;;28.30;99.90;;;;;;5071088;28;20284;-69
2023/01/04 00:13:46;;;;;;;9.27;2.67;;;28.10;99.90;;;;;;5085821;28;20544;-73
2023/01/04 00:16:16;;;;;;;11.93;2.40;;;27.90;99.90;;;;;;5090750;28;20249;-69
2023/01/04 00:18:44;;;;;;;8.73;1.90;;;27.90;99.90;;;;;;5071607;28;20175;-69
2023/01/04 00:21:17;;;;;;;11.67;2.20;;;27.70;99.90;;;;;;5071490;28;20184;-69
2023/01/04 00:23:47;;;;;;;10.27;2.50;;;27.50;99.90;;;;;;5086545;28;20187;-72
2023/01/04 00:26:18;;;;;;;21.47;3.03;;;27.30;99.90;;;;;;5091426;28;20187;-71
2023/01/04 00:28:45;;;;;;;18.87;3.20;;;27.10;99.90;;;;;;5091354;28;20187;-72
2023/01/04 00:31:15;;;;;;;26.07;7.23;;;26.90;99.90;;;;;;5091342;28;20179;-71
2023/01/04 00:33:42;;;;;;;10.63;2.40;;;26.80;99.90;;;;;;5076141;28;20192;-70
2023/01/04 00:36:13;;;;;;;10.70;2.27;;;26.80;99.90;;;;;;5071286;28;20215;-72
2023/01/04 00:38:41;;;;;;;9.80;1.87;;;26.80;99.90;;;;;;5088205;28;20190;-69
2023/01/04 00:41:10;;;;;;;30.97;7.37;;;26.70;99.90;;;;;;5091691;28;20183;-71
2023/01/04 00:43:37;;;;;;;10.63;2.00;;;26.40;99.90;;;;;;5075367;28;20191;-68
2023/01/04 00:46:10;;;;;;;8.90;2.00;;;26.10;99.90;;;;;;5070919;28;20186;-71
2023/01/04 00:48:37;;;;;;;11.87;2.77;;;25.70;99.90;;;;;;5070082;28;20188;-71
2023/01/04 00:51:05;;;;;;;22.37;5.03;;;25.60;99.90;;;;;;5071339;28;20203;-69
2023/01/04 00:53:32;;;;;;;10.87;2.30;;;25.40;99.90;;;;;;5073498;28;20267;-67
2023/01/04 00:56:00;;;;;;;12.80;2.53;;;25.50;99.90;;;;;;5071096;28;20220;-71
2023/01/04 00:58:28;;;;;;;7.40;2.27;;;25.60;99.90;;;;;;5071293;28;20183;-74
2023/01/04 01:00:55;;;;;;;46.47;11.43;;;25.60;99.90;;;;;;5070856;28;20258;-74
2023/01/04 01:03:23;;;;;;;14.37;2.73;;;25.40;99.90;;;;;;5072378;28;20180;-73
2023/01/04 01:05:50;;;;;;;9.23;2.43;;;25.40;99.90;;;;;;5071128;28;20180;-75
2023/01/04 01:08:26;;;;;;;11.27;2.73;;;25.40;99.90;;;;;;5070679;28;20176;-73
2023/01/04 01:10:55;;;;;;;14.23;2.40;;;25.30;99.90;;;;;;5071085;28;20758;-71
2023/01/04 01:13:23;;;;;;;10.23;2.60;;;25.50;99.90;;;;;;5083742;28;20676;-73
2023/01/04 01:15:51;;;;;;;8.13;2.60;;;25.60;99.90;;;;;;5092996;28;20308;-74
2023/01/04 01:18:18;;;;;;;6.07;1.80;;;25.60;99.90;;;;;;5094867;28;20666;-71
2023/01/04 01:20:46;;;;;;;13.77;2.63;;;25.60;99.90;;;;;;5094457;28;20278;-71
2023/01/04 01:23:14;;;;;;;7.07;1.87;;;25.80;99.90;;;;;;5082524;28;20191;-72
2023/01/04 01:25:42;;;;;;;6.17;1.80;;;26.10;99.90;;;;;;5087338;28;20179;-70
2023/01/04 01:28:10;;;;;;;10.70;2.17;;;26.60;99.90;;;;;;5094541;28;20219;-70
2023/01/04 01:30:42;;;;;;;5.00;1.90;;;27.40;99.90;;;;;;5089725;28;20207;-71
2023/01/04 01:33:10;;;;;;;6.40;1.73;;;27.80;99.90;;;;;;5081105;28;20215;-69
2023/01/04 01:35:37;;;;;;;10.23;1.77;;;28.00;99.90;;;;;;5094481;28;20256;-67
2023/01/04 01:38:05;;;;;;;7.43;2.10;;;28.20;99.90;;;;;;5086372;28;20645;-70
2023/01/04 01:40:32;;;;;;;13.50;2.50;;;28.60;99.90;;;;;;5074436;28;20176;-74
2023/01/04 01:42:59;;;;;;;7.57;1.77;;;29.10;99.90;;;;;;5077238;28;20244;-69
2023/01/04 01:45:33;;;;;;;9.50;2.07;;;28.70;99.90;;;;;;5073603;28;20187;-69
2023/01/04 01:48:05;;;;;;;7.17;1.73;;;28.40;99.90;;;;;;5074106;28;20229;-69
2023/01/04 01:50:41;;;;;;;11.03;2.33;;;28.30;99.90;;;;;;5079134;28;20180;-69
2023/01/04 01:53:10;;;;;;;10.30;2.50;;;28.30;99.90;;;;;;5092364;28;20187;-72
2023/01/04 01:55:40;;;;;;;8.33;2.03;;;27.90;99.90;;;;;;5090945;28;20962;-72
2023/01/04 01:58:12;;;;;;;11.60;2.20;;;27.70;99.90;;;;;;5094056;28;20194;-75
2023/01/04 02:00:40;;;;;;;6.77;1.90;;;27.50;99.90;;;;;;5093698;28;20206;-70
2023/01/04 02:03:20;;;;;;;8.33;2.00;;;27.50;99.90;;;;;;5091198;28;20220;-71
2023/01/04 02:05:51;;;;;;;6.17;2.03;;;27.50;99.90;;;;;;5093884;28;20518;-72
2023/01/04 02:08:22;;;;;;;12.47;2.30;;;27.30;99.90;;;;;;5093334;28;20229;-72
2023/01/04 02:10:50;;;;;;;9.23;2.40;;;27.10;99.90;;;;;;5093871;28;20409;-71
2023/01/04 02:14:25;;;;;;;10.73;2.37;;;27.00;99.90;;;;;;5093262;28;20203;-71
2023/01/04 02:16:28;;;;;;;10.30;2.53;;;26.90;99.90;;;;;;5083207;28;20222;-69
2023/01/04 02:19:17;;;;;;;8.70;2.17;;;26.80;99.90;;;;;;5082142;28;20179;-75
2023/01/04 02:22:11;;;;;;;13.33;3.10;;;26.80;99.90;;;;;;5084532;28;20190;-70
2023/01/04 02:25:15;;;;;;;9.10;2.10;;;26.70;99.90;;;;;;5073248;28;20176;-69
2023/01/04 02:28:06;;;;;;;6.73;2.00;;;26.80;99.90;;;;;;5073290;28;20191;-70
2023/01/04 02:30:42;;;;;;;6.30;2.13;;;26.70;99.90;;;;;;5072885;28;20642;-69
2023/01/04 02:33:25;;;;;;;8.67;2.43;;;26.70;99.90;;;;;;5073224;28;20179;-69
2023/01/04 02:35:58;;;;;;;12.30;2.40;;;26.40;99.90;;;;;;5072853;28;20226;-74
2023/01/04 02:38:39;;;;;;;12.47;2.20;;;26.30;99.90;;;;;;5078143;28;20189;-67
2023/01/04 02:41:24;;;;;;;9.40;2.10;;;26.10;99.90;;;;;;5072996;28;20645;-67
2023/01/04 02:46:58;;;;;;;9.23;1.73;;;26.00;99.90;;;;;;5079969;28;20272;-73
2023/01/04 02:52:10;;;;;;;11.13;2.37;;;25.90;99.90;;;;;;5091289;28;20632;-71
2023/01/04 02:54:38;;;;;;;10.37;2.50;;;25.60;99.90;;;;;;5082512;28;20616;-69
2023/01/04 02:58:00;;;;;;;11.87;3.30;;;25.40;99.90;;;;;;5090687;28;20234;-69
2023/01/04 03:07:12;;;;;;;9.73;2.70;;;25.20;99.90;;;;;;4982985;28;20199;-67
2023/01/04 03:09:46;;;;;;;6.03;1.90;;;25.00;99.90;;;;;;5058344;28;20699;-68
2023/01/04 03:12:32;;;;;;;11.43;2.53;;;25.00;99.90;;;;;;5088983;28;20237;-72
2023/01/04 03:15:04;;;;;;;9.80;2.10;;;25.00;99.90;;;;;;5071833;28;20219;-70
2023/01/04 03:20:57;;;;;;;10.70;3.10;;;24.40;99.90;;;;;;5074985;28;20281;-71
2023/01/04 03:36:05;;;;;;;9.83;2.77;;;22.70;99.90;;;;;;5086583;28;20720;-68
2023/01/04 03:48:38;;;;;;;10.00;3.47;;;22.20;99.90;;;;;;5084298;28;20613;-69
2023/01/04 03:51:30;;;;;;;8.20;2.87;;;22.30;99.90;;;;;;5074084;28;20235;-68
2023/01/04 03:54:19;;;;;;;11.17;2.97;;;22.30;99.90;;;;;;5071783;28;20179;-73
2023/01/04 03:56:49;;;;;;;13.57;2.80;;;22.30;99.90;;;;;;5085314;28;20210;-69
2023/01/04 03:59:17;;;;;;;9.47;3.00;;;22.30;99.90;;;;;;5088423;28;20179;-73
2023/01/04 04:01:45;;;;;;;9.20;2.77;;;22.30;99.90;;;;;;5084635;28;20783;-74
2023/01/04 04:09:45;;;;;;;5.57;2.33;;;22.60;99.90;;;;;;5071706;28;20194;-68
2023/01/04 04:15:35;;;;;;;6.73;2.13;;;22.80;99.90;;;;;;5076038;28;20256;-67
2023/01/04 04:18:03;;;;;;;5.20;1.70;;;23.00;99.90;;;;;;5084257;28;20187;-68
2023/01/04 04:20:31;;;;;;;9.80;2.73;;;23.10;99.90;;;;;;5071221;28;20266;-69
2023/01/04 04:22:59;;;;;;;4.23;1.77;;;23.20;99.90;;;;;;5071408;28;20234;-69
2023/01/04 04:25:27;;;;;;;6.40;2.17;;;23.30;99.90;;;;;;5072215;28;20183;-68
2023/01/04 04:27:54;;;;;;;11.73;1.97;;;23.20;99.90;;;;;;5071116;28;20247;-69
2023/01/04 04:30:22;;;;;;;7.63;1.70;;;23.30;99.90;;;;;;5084943;28;20173;-69
2023/01/04 04:32:50;;;;;;;5.40;1.63;;;23.30;99.90;;;;;;5082869;28;20190;-70
2023/01/04 04:35:18;;;;;;;4.20;1.90;;;23.10;99.90;;;;;;5079471;28;20675;-69
2023/01/04 04:37:46;;;;;;;9.70;1.90;;;23.10;99.90;;;;;;5080265;28;20183;-69
2023/01/04 04:43:00;;;;;;;6.47;1.83;;;23.00;99.90;;;;;;5089900;28;20236;-68
2023/01/04 04:45:27;;;;;;;12.40;1.80;;;22.90;99.90;;;;;;5087274;28;20167;-69
2023/01/04 04:47:55;;;;;;;7.30;2.33;;;22.90;99.90;;;;;;5077124;28;20182;-69
2023/01/04 04:50:23;;;;;;;4.23;1.70;;;22.90;99.90;;;;;;5074960;28;20604;-71
2023/01/04 04:52:51;;;;;;;4.17;1.87;;;22.90;99.90;;;;;;5075653;28;20241;-68
2023/01/04 04:55:18;;;;;;;6.37;2.07;;;22.80;99.90;;;;;;5081854;28;20223;-69
2023/01/04 04:57:46;;;;;;;7.20;1.67;;;22.80;99.90;;;;;;5083094;28;20190;-71
2023/01/04 05:00:14;;;;;;;7.87;1.97;;;22.90;99.90;;;;;;5083714;28;20214;-70
2023/01/04 05:02:42;;;;;;;6.00;2.00;;;23.00;99.90;;;;;;5080394;28;20266;-68
2023/01/04 05:05:10;;;;;;;6.53;1.90;;;23.10;99.90;;;;;;5088166;28;20235;-69
2023/01/04 05:07:38;;;;;;;6.57;1.70;;;23.30;99.90;;;;;;5095171;28;20220;-70
2023/01/04 05:10:06;;;;;;;6.70;1.60;;;23.40;99.90;;;;;;5090029;28;20182;-69
2023/01/04 05:15:20;;;;;;;5.60;1.20;;;23.60;99.90;;;;;;5089269;28;20271;-69
2023/01/04 05:17:47;;;;;;;5.97;1.40;;;23.70;99.90;;;;;;5094975;28;20183;-69
2023/01/04 05:20:15;;;;;;;3.53;1.30;;;23.70;99.90;;;;;;5094603;28;20739;-71
2023/01/04 05:22:43;;;;;;;4.20;1.40;;;23.80;99.90;;;;;;5094897;28;20178;-71
2023/01/04 05:25:11;;;;;;;4.83;1.40;;;23.60;99.90;;;;;;5080495;28;20176;-68
2023/01/04 05:27:40;;;;;;;3.50;1.43;;;23.70;99.90;;;;;;5074136;28;20191;-68
2023/01/04 05:32:57;;;;;;;7.00;1.20;;;24.60;99.90;;;;;;5084632;28;20197;-69
2023/01/04 05:35:25;;;;;;;3.10;1.20;;;25.10;99.90;;;;;;5073918;28;20202;-70
2023/01/04 05:37:53;;;;;;;3.23;1.00;;;25.30;99.90;;;;;;5074450;28;20225;-68
2023/01/04 05:40:21;;;;;;;2.93;1.00;;;25.10;99.90;;;;;;5074348;28;20194;-68
2023/01/04 05:42:49;;;;;;;3.03;1.00;;;25.00;99.90;;;;;;5093083;28;20186;-76
2023/01/04 05:45:19;;;;;;;6.57;1.33;;;24.60;99.90;;;;;;5082192;28;20176;-69
2023/01/04 05:47:51;;;;;;;3.50;1.00;;;24.60;99.90;;;;;;5074212;28;20538;-69
2023/01/04 05:50:21;;;;;;;4.00;1.13;;;24.60;99.90;;;;;;5072510;28;20179;-69
2023/01/04 05:52:49;;;;;;;6.33;0.90;;;24.80;99.90;;;;;;5082782;28;20225;-76
2023/01/04 05:55:17;;;;;;;1.70;1.17;;;24.70;99.90;;;;;;5088889;28;20290;-69
2023/01/04 05:57:45;;;;;;;3.57;1.40;;;24.40;99.90;;;;;;5092924;28;20250;-75
2023/01/04 06:00:14;;;;;;;2.63;0.80;;;24.10;99.90;;;;;;5094045;28;20671;-69
2023/01/04 06:02:43;;;;;;;6.03;1.37;;;23.70;99.90;;;;;;5092235;28;20195;-68
2023/01/04 06:05:12;;;;;;;5.17;1.60;;;23.30;99.90;;;;;;5082960;28;20659;-69
2023/01/04 06:07:40;;;;;;;4.70;0.90;;;23.20;99.90;;;;;;5072474;28;20190;-68
2023/01/04 06:10:10;;;;;;;2.50;1.13;;;23.00;99.90;;;;;;5088869;28;20200;-67
2023/01/04 06:12:39;;;;;;;7.93;1.70;;;22.80;99.90;;;;;;5093867;28;20230;-69
2023/01/04 06:15:08;;;;;;;5.50;1.20;;;22.70;99.90;;;;;;5083784;28;20233;-68
2023/01/04 06:17:37;;;;;;;3.30;0.80;;;22.60;99.90;;;;;;5073710;28;20172;-68
2023/01/04 06:20:59;;;;;;;1.53;0.60;;;22.50;99.90;;;;;;5073924;28;20184;-67
2023/01/04 06:23:26;;;;;;;1.27;0.40;;;22.40;99.90;;;;;;5073509;28;20659;-74
2023/01/04 06:25:54;;;;;;;1.67;0.50;;;22.30;99.90;;;;;;5091589;28;20183;-72
2023/01/04 06:28:22;;;;;;;1.37;0.57;;;22.20;99.90;;;;;;5093261;28;20675;-71
2023/01/04 06:30:50;;;;;;;0.97;0.40;;;22.20;99.90;;;;;;5092081;28;20272;-69
2023/01/04 06:33:17;;;;;;;3.83;0.33;;;22.20;99.90;;;;;;5093510;28;20175;-69
2023/01/04 06:35:52;;;;;;;1.60;0.67;;;22.20;99.90;;;;;;5091226;28;20222;-68
2023/01/04 06:38:20;;;;;;;0.63;0.50;;;22.20;99.90;;;;;;5093302;28;20190;-69
2023/01/04 06:40:48;;;;;;;0.70;0.40;;;22.10;99.90;;;;;;5093467;28;20213;-69
2023/01/04 06:43:15;;;;;;;0.57;0.20;;;22.10;99.90;;;;;;5092782;28;20187;-70
2023/01/04 06:45:43;;;;;;;0.37;0.20;;;22.00;99.90;;;;;;5076509;28;20613;-70
2023/01/04 06:48:11;;;;;;;2.20;0.40;;;22.00;99.90;;;;;;5072979;28;20184;-69
2023/01/04 06:50:39;;;;;;;2.60;0.53;;;21.90;99.90;;;;;;5072564;28;20278;-69
2023/01/04 06:53:07;;;;;;;0.57;0.30;;;21.80;99.90;;;;;;5072943;28;20190;-70
2023/01/04 06:55:35;;;;;;;0.50;0.43;;;21.80;99.90;;;;;;5087441;28;20250;-69
2023/01/04 06:58:03;;;;;;;0.73;0.40;;;21.70;99.90;;;;;;5092515;28;20175;-69
2023/01/04 07:00:31;;;;;;;0.53;0.33;;;21.70;99.90;;;;;;5092910;28;20179;-69
2023/01/04 07:02:58;;;;;;;0.97;0.60;;;21.70;99.90;;;;;;5081057;28;20574;-69
2023/01/04 07:05:26;;;;;;;0.40;0.40;;;21.70;99.90;;;;;;5072355;28;20259;-69
2023/01/04 07:07:54;;;;;;;0.73;0.50;;;21.60;99.90;;;;;;5072492;28;20167;-69
2023/01/04 07:10:22;;;;;;;0.60;0.47;;;21.50;99.90;;;;;;5079729;28;20201;-68
2023/01/04 07:12:49;;;;;;;0.40;0.40;;;21.50;99.90;;;;;;5072696;28;20293;-69
2023/01/04 07:15:17;;;;;;;2.33;0.70;;;21.50;99.90;;;;;;5072464;28;20199;-67
2023/01/04 07:17:48;;;;;;;0.57;0.40;;;21.50;99.90;;;;;;5072267;28;20270;-69
2023/01/04 07:20:16;;;;;;;1.47;0.70;;;21.50;99.90;;;;;;5070696;28;20184;-68
2023/01/04 07:22:44;;;;;;;1.03;0.50;;;21.50;99.90;;;;;;5071876;28;20176;-68
2023/01/04 07:25:12;;;;;;;2.63;0.73;;;21.50;99.90;;;;;;5081778;28;20183;-69
2023/01/04 07:27:40;;;;;;;0.77;0.73;;;21.40;99.90;;;;;;5092007;28;20186;-67
2023/01/04 07:30:08;;;;;;;1.30;0.73;;;21.40;99.90;;;;;;5086518;28;20589;-68
2023/01/04 07:32:36;;;;;;;0.83;0.83;;;21.30;99.90;;;;;;5071811;28;20175;-68
2023/01/04 07:35:04;;;;;;;3.90;0.60;;;21.20;99.90;;;;;;5077120;28;20831;-69
2023/01/04 07:37:32;;;;;;;1.03;0.87;;;21.20;99.90;;;;;;5092007;28;20180;-68
2023/01/04 07:39:59;;;;;;;1.63;0.90;;;21.20;99.90;;;;;;5092242;28;20192;-68
2023/01/04 07:42:27;;;;;;;1.43;1.20;;;21.20;99.90;;;;;;5090793;28;20183;-72
2023/01/04 07:44:55;;;;;;;1.87;1.30;;;21.20;99.90;;;;;;5087443;28;20198;-68
2023/01/04 07:47:23;;;;;;;2.27;1.10;;;21.20;99.90;;;;;;5079301;28;20180;-70
2023/01/04 07:49:51;;;;;;;1.80;0.90;;;21.10;99.90;;;;;;5086792;28;20217;-68
2023/01/04 07:52:18;;;;;;;0.90;0.90;;;21.10;99.90;;;;;;5091973;28;20206;-69
2023/01/04 07:54:46;;;;;;;1.67;0.90;;;21.10;99.90;;;;;;5089013;28;20183;-68
2023/01/04 07:57:14;;;;;;;1.40;1.00;;;21.20;99.90;;;;;;5071307;28;20239;-70
2023/01/04 07:59:42;;;;;;;0.87;0.87;;;21.20;99.90;;;;;;5089647;28;20190;-69
2023/01/04 08:02:13;;;;;;;2.70;0.90;;;21.20;99.90;;;;;;5091789;28;20276;-69
2023/01/04 08:04:41;;;;;;;2.27;0.90;;;21.20;99.90;;;;;;5089565;28;20184;-68
2023/01/04 08:07:08;;;;;;;3.23;1.00;;;21.10;99.90;;;;;;5078984;28;20236;-69
2023/01/04 08:09:36;;;;;;;3.33;1.00;;;21.00;99.90;;;;;;5082668;28;20179;-67
2023/01/04 08:12:04;;;;;;;3.93;1.20;;;20.90;99.90;;;;;;5079176;28;20220;-69
2023/01/04 08:14:32;;;;;;;2.40;1.00;;;20.80;99.90;;;;;;5071100;28;20635;-70
2023/01/04 08:17:00;;;;;;;2.43;1.10;;;20.60;99.90;;;;;;5079440;28;20211;-69
2023/01/04 08:19:28;;;;;;;4.87;0.97;;;20.60;99.90;;;;;;5072573;28;20592;-69
2023/01/04 08:21:56;;;;;;;2.67;1.13;;;20.50;99.90;;;;;;5070214;28;20186;-68
2023/01/04 08:24:24;;;;;;;3.47;0.80;;;20.50;99.90;;;;;;5073000;28;20671;-69
2023/01/04 08:26:51;;;;;;;1.23;0.80;;;20.60;99.90;;;;;;5075326;28;20197;-69
2023/01/04 08:29:19;;;;;;;2.90;1.00;;;20.60;99.90;;;;;;5088359;28;20181;-69
2023/01/04 08:31:47;;;;;;;2.37;1.23;;;20.60;99.90;;;;;;5085522;28;20213;-69
2023/01/04 08:34:15;;;;;;;6.77;1.60;;;20.60;99.90;;;;;;5096689;28;20180;-70
2023/01/04 08:36:49;;;;;;;2.20;1.10;;;20.60;99.90;;;;;;5096795;28;20216;-68
2023/01/04 08:39:17;;;;;;;2.00;1.30;;;20.60;99.90;;;;;;5096885;28;20167;-68
2023/01/04 08:41:52;;;;;;;3.63;1.40;;;20.50;99.90;;;;;;5094768;28;20187;-69
2023/01/04 08:44:25;;;;;;;6.17;1.40;;;20.50;99.90;;;;;;5097299;28;20265;-70
2023/01/04 08:46:54;;;;;;;5.50;1.47;;;20.50;99.90;;;;;;5095463;28;20193;-69
2023/01/04 08:49:23;;;;;;;5.83;1.53;;;20.50;99.90;;;;;;5080381;28;20180;-68
2023/01/04 08:51:51;;;;;;;3.27;1.30;;;20.50;99.90;;;;;;5089561;28;20183;-68
2023/01/04 08:54:19;;;;;;;7.53;1.57;;;20.50;99.90;;;;;;5095073;28;20277;-67
2023/01/04 08:56:47;;;;;;;3.87;1.40;;;20.40;99.90;;;;;;5096619;28;20211;-68
2023/01/04 08:59:16;;;;;;;4.57;1.57;;;20.50;99.90;;;;;;5095005;28;20188;-69
2023/01/04 09:01:44;;;;;;;2.57;1.30;;;20.50;99.90;;;;;;5095393;28;20187;-68
2023/01/04 09:04:12;;;;;;;5.23;1.70;;;20.50;99.90;;;;;;5096235;28;20172;-71
2023/01/04 09:06:41;;;;;;;3.80;1.83;;;20.50;99.90;;;;;;5096533;28;20187;-67
2023/01/04 09:09:09;;;;;;;4.97;1.50;;;20.50;99.90;;;;;;5095737;28;20303;-69
2023/01/04 09:11:38;;;;;;;2.27;1.50;;;20.50;99.90;;;;;;5076191;28;20251;-68
2023/01/04 09:14:07;;;;;;;3.40;1.17;;;20.50;99.90;;;;;;5075878;28;20168;-70
2023/01/04 09:16:36;;;;;;;4.23;1.37;;;20.40;99.90;;;;;;5075837;28;20207;-68
2023/01/04 09:19:05;;;;;;;4.53;1.37;;;20.40;99.90;;;;;;5074604;28;20225;-67
2023/01/04 09:21:34;;;;;;;3.77;1.40;;;20.40;99.90;;;;;;5078998;28;20188;-68
2023/01/04 09:24:02;;;;;;;6.73;1.37;;;20.30;99.90;;;;;;5075603;28;20171;-67
2023/01/04 09:26:30;;;;;;;2.97;1.27;;;20.40;99.90;;;;;;5091410;28;20544;-68
2023/01/04 09:28:58;;;;;;;4.07;1.50;;;20.50;99.90;;;;;;5095470;28;20175;-67
2023/01/04 09:31:27;;;;;;;2.93;1.10;;;20.40;99.90;;;;;;5095686;28;20214;-68
2023/01/04 09:33:59;;;;;;;2.57;1.20;;;20.40;99.90;;;;;;5095781;28;20181;-68
2023/01/04 09:36:27;;;;;;;1.63;1.20;;;20.40;99.90;;;;;;5094854;28;20219;-68
2023/01/04 09:38:55;;;;;;;3.77;1.50;;;20.40;99.90;;;;;;5094438;28;20181;-70
2023/01/04 09:41:27;;;;;;;2.67;1.50;;;20.30;99.90;;;;;;5095631;28;20262;-69
2023/01/04 09:44:02;;;;;;;4.87;1.30;;;20.30;99.90;;;;;;5095688;28;20169;-68
2023/01/04 09:46:51;;;;;;;2.00;1.03;;;20.30;99.90;;;;;;5095836;28;20214;-68
2023/01/04 09:49:36;;;;;;;2.30;1.00;;;20.30;99.90;;;;;;5095626;28;20586;-68
2023/01/04 09:52:29;;;;;;;2.10;1.00;;;20.30;99.90;;;;;;5095505;28;20538;-67
2023/01/04 09:55:06;;;;;;;2.10;1.00;;;20.30;99.90;;;;;;5095616;28;20257;-68
2023/01/04 09:57:41;;;;;;;4.27;1.10;;;20.30;99.90;;;;;;5095310;28;20596;-68
2023/01/04 10:00:20;;;;;;;1.57;0.90;;;20.20;99.90;;;;;;5090480;28;20193;-68
2023/01/04 10:03:10;;;;;;;3.37;1.43;;;20.10;99.90;;;;;;5094474;28;20173;-68
2023/01/04 10:05:38;;;;;;;3.00;1.10;;;20.10;99.90;;;;;;5095494;28;20171;-68
2023/01/04 10:08:19;;;;;;;2.70;1.17;;;20.10;99.90;;;;;;5095171;28;20271;-69
2023/01/04 10:11:06;;;;;;;2.63;1.30;;;20.20;99.90;;;;;;5086819;28;20175;-67
2023/01/04 10:13:52;;;;;;;4.37;2.00;;;20.20;99.90;;;;;;5077374;28;20293;-69
2023/01/04 10:16:48;;;;;;;4.73;1.10;;;20.20;99.90;;;;;;5075015;28;20364;-72
2023/01/04 10:19:36;;;;;;;1.10;0.80;;;20.30;99.90;;;;;;5074744;28;20599;-68
2023/01/04 10:22:11;;;;;;;1.87;0.90;;;20.20;99.90;;;;;;5060907;28;20192;-68
2023/01/04 10:25:00;;;;;;;1.30;1.00;;;20.20;99.90;;;;;;5075079;28;20664;-68
2023/01/04 10:27:46;;;;;;;2.40;0.90;;;20.10;99.90;;;;;;5088312;28;20263;-68
2023/01/04 10:30:25;;;;;;;8.27;1.10;;;20.10;99.90;;;;;;5095031;28;20174;-69
2023/01/04 10:33:11;;;;;;;2.77;0.53;;;20.10;99.90;;;;;;5074463;28;20183;-68
2023/01/04 10:35:42;;;;;;;2.13;0.70;;;20.10;99.90;;;;;;5094693;28;20211;-67
2023/01/04 10:38:25;;;;;;;1.60;0.53;;;20.10;99.90;;;;;;5094559;28;20248;-68
2023/01/04 10:40:54;;;;;;;1.43;0.70;;;20.00;99.90;;;;;;5091094;28;20709;-69
2023/01/04 10:43:59;;;;;;;4.23;0.60;;;20.00;99.90;;;;;;5074022;28;20176;-68
2023/01/04 10:47:10;;;;;;;1.97;0.40;;;20.00;99.90;;;;;;5074431;28;20175;-68
2023/01/04 10:49:55;;;;;;;0.60;0.57;;;19.80;99.90;;;;;;5072981;28;20187;-68
2023/01/04 10:52:37;;;;;;;0.70;0.50;;;19.80;99.90;;;;;;5094219;28;20233;-68
2023/01/04 10:55:12;;;;;;;0.33;0.33;;;19.90;99.90;;;;;;5094122;28;20181;-69
2023/01/04 10:57:55;;;;;;;0.93;0.43;;;20.00;99.90;;;;;;5094134;28;20261;-68
2023/01/04 11:00:33;;;;;;;0.37;0.37;;;20.00;99.90;;;;;;5092559;28;20179;-69
2023/01/04 11:03:08;;;;;;;0.60;0.40;;;20.00;99.90;;;;;;5094103;28;20176;-67
2023/01/04 11:06:09;;;;;;;1.20;0.30;;;19.90;99.90;;;;;;5094137;28;20269;-68
2023/01/04 11:09:02;;;;;;;2.63;0.40;;;19.80;99.90;;;;;;5076764;28;20202;-69
2023/01/04 11:11:42;;;;;;;0.23;0.23;;;19.90;99.90;;;;;;5074647;28;20233;-68
2023/01/04 11:14:11;;;;;;;0.63;0.40;;;19.90;99.90;;;;;;5073395;28;20180;-69
2023/01/04 11:16:44;;;;;;;0.33;0.30;;;19.90;99.90;;;;;;5077631;28;20577;-69
2023/01/04 11:19:12;;;;;;;0.60;0.50;;;19.90;99.90;;;;;;5093884;28;20163;-68
2023/01/04 11:22:11;;;;;;;0.40;0.30;;;19.90;99.90;;;;;;5077149;28;20195;-69
2023/01/04 11:24:42;;;;;;;0.40;0.40;;;19.90;99.90;;;;;;5069192;28;20192;-68
2023/01/04 11:27:21;;;;;;;0.43;0.40;;;20.00;99.90;;;;;;5072871;28;20208;-67
2023/01/04 11:30:22;;;;;;;0.93;0.53;;;20.00;99.90;;;;;;5077473;28;20175;-70
2023/01/04 11:33:14;;;;;;;0.30;0.30;;;20.00;99.90;;;;;;5079426;28;20186;-70
2023/01/04 11:36:01;;;;;;;0.37;0.37;;;19.90;99.90;;;;;;5089552;28;20635;-68
2023/01/04 11:38:30;;;;;;;0.30;0.30;;;19.90;99.90;;;;;;5073209;28;20217;-69
2023/01/04 11:41:15;;;;;;;0.27;0.27;;;19.90;99.90;;;;;;5073270;28;20187;-68
2023/01/04 11:44:03;;;;;;;0.53;0.40;;;19.80;99.90;;;;;;5075556;28;20184;-70
2023/01/04 11:46:33;;;;;;;0.20;0.20;;;19.80;99.90;;;;;;5087300;28;20174;-71
2023/01/04 11:49:01;;;;;;;0.30;0.30;;;19.80;99.90;;;;;;5072952;28;20534;-70
2023/01/04 11:51:29;;;;;;;0.40;0.40;;;19.70;99.90;;;;;;5090413;28;20191;-69
2023/01/04 11:54:03;;;;;;;0.50;0.40;;;19.70;99.90;;;;;;5093194;28;20174;-68
2023/01/04 11:56:33;;;;;;;0.40;0.40;;;19.70;99.90;;;;;;5093005;28;20224;-69
2023/01/04 11:59:14;;;;;;;0.30;0.30;;;19.70;99.90;;;;;;5093276;28;20236;-69
2023/01/04 12:01:48;;;;;;;0.30;0.30;;;19.60;99.90;;;;;;5073394;28;20391;-69
2023/01/04 12:04:20;;;;;;;0.40;0.30;;;19.70;99.90;;;;;;5073211;28;20167;-69
2023/01/04 12:06:53;;;;;;;0.20;0.20;;;19.70;99.90;;;;;;5084146;28;20222;-71
2023/01/04 12:09:22;;;;;;;0.63;0.30;;;19.70;99.90;;;;;;5078515;28;20180;-69
2023/01/04 12:11:53;;;;;;;0.30;0.30;;;19.60;99.90;;;;;;5072685;28;20227;-68
2023/01/04 12:14:27;;;;;;;0.30;0.30;;;19.60;99.90;;;;;;5072867;28;20607;-71
2023/01/04 12:17:13;;;;;;;0.37;0.37;;;19.50;99.90;;;;;;5072815;28;20320;-70
2023/01/04 12:19:45;;;;;;;0.70;0.30;;;19.50;99.90;;;;;;5086653;28;20648;-69
2023/01/04 12:22:35;;;;;;;1.40;0.40;;;19.50;99.90;;;;;;5072669;28;20174;-69
2023/01/04 12:25:21;;;;;;;0.40;0.30;;;19.40;99.90;;;;;;5061169;28;20218;-69
2023/01/04 12:27:50;;;;;;;0.40;0.30;;;19.40;99.90;;;;;;5071358;28;20266;-69
2023/01/04 12:30:36;;;;;;;0.30;0.30;;;19.40;99.90;;;;;;5078312;28;20223;-68
2023/01/04 12:33:34;;;;;;;0.30;0.30;;;19.40;99.90;;;;;;5092603;28;20176;-69
2023/01/04 12:36:06;;;;;;;0.83;0.40;;;19.30;99.90;;;;;;5093302;28;20649;-70
2023/01/04 12:38:58;;;;;;;0.50;0.30;;;19.20;99.90;;;;;;5083404;28;20645;-69
2023/01/04 12:41:59;;;;;;;0.30;0.30;;;19.20;99.90;;;;;;5088175;28;20191;-70
2023/01/04 12:44:38;;;;;;;0.53;0.40;;;19.00;99.90;;;;;;5092896;28;20183;-69
2023/01/04 12:50:08;;;;;;;0.50;0.40;;;18.80;99.90;;;;;;5087833;28;20267;-70
2023/01/04 12:52:45;;;;;;;0.30;0.30;;;18.70;99.90;;;;;;5072662;28;20271;-69
2023/01/04 12:55:31;;;;;;;0.40;0.30;;;18.60;99.90;;;;;;5072610;28;20181;-69
2023/01/04 12:58:44;;;;;;;2.07;0.40;;;18.60;99.90;;;;;;5072757;28;20206;-68
2023/01/04 13:01:23;;;;;;;0.60;0.47;;;18.50;99.90;;;;;;5079362;28;20183;-69
2023/01/04 13:03:59;;;;;;;0.50;0.30;;;18.50;99.90;;;;;;5082771;28;20183;-68
2023/01/04 13:06:31;;;;;;;0.40;0.40;;;18.40;99.90;;;;;;5072554;28;20267;-68
2023/01/04 13:09:00;;;;;;;2.03;0.50;;;18.30;99.90;;;;;;5072290;28;20183;-68
2023/01/04 13:11:58;;;;;;;1.90;0.50;;;18.30;99.90;;;;;;5088676;28;20314;-70
2023/01/04 13:14:45;;;;;;;2.97;0.70;;;;;;;;;;5095969;28;20671;-71
2023/01/04 13:17:18;;;;;;;1.83;0.47;;;;;;;;;;5089473;28;20207;-68
2023/01/04 13:19:46;;;;;;;1.03;0.50;;;;;;;;;;5074895;28;20177;-68
2023/01/04 13:22:26;;;;;;;2.63;0.50;;;18.20;99.90;;;;;;5093939;28;20732;-68
2023/01/04 13:24:55;;;;;;;1.33;0.53;;;;;;;;;;5094130;28;20220;-68
2023/01/04 13:27:23;;;;;;;1.40;0.40;;;18.30;99.90;;;;;;5093998;28;20182;-68
2023/01/04 13:29:52;;;;;;;1.23;0.60;;;18.20;99.90;;;;;;5091560;28;20518;-68
2023/01/04 13:32:24;;;;;;;0.70;0.30;;;18.30;99.90;;;;;;5074427;28;20264;-67
2023/01/04 13:35:00;;;;;;;0.80;0.40;;;18.20;99.90;;;;;;5087523;28;20528;-70
2023/01/04 13:37:37;;;;;;;2.70;0.60;;;18.20;99.90;;;;;;5075169;28;20215;-68
2023/01/04 13:40:23;;;;;;;0.70;0.60;;;18.20;99.90;;;;;;5075809;28;20266;-68
2023/01/04 13:43:17;;;;;;;1.50;0.60;;;18.20;99.90;;;;;;5075522;28;20180;-70
2023/01/04 13:45:47;;;;;;;4.20;1.00;;;;;;;;;;5066983;28;20246;-69
2023/01/04 13:48:18;;;;;;;1.57;0.57;;;18.10;99.90;;;;;;5075642;28;20175;-67
2023/01/04 13:51:12;;;;;;;3.50;0.77;;;18.10;99.90;;;;;;5075521;28;20187;-67
2023/01/04 13:53:40;;;;;;;2.50;0.70;;;18.10;99.90;;;;;;5076858;28;20177;-68
2023/01/04 13:56:19;;;;;;;3.70;0.70;;;18.10;99.90;;;;;;5094698;28;20267;-68
2023/01/04 13:58:46;;;;;;;3.50;1.03;;;18.10;99.90;;;;;;5095420;28;20273;-68
2023/01/04 14:01:17;;;;;;;2.93;0.73;;;18.00;99.90;;;;;;5093717;28;20231;-67
2023/01/04 14:03:58;;;;;;;1.33;0.70;;;18.00;99.90;;;;;;5080753;28;20172;-69
2023/01/04 14:06:28;;;;;;;2.50;0.80;;;18.00;99.90;;;;;;5095608;28;20194;-70
2023/01/04 14:09:17;;;;;;;5.30;0.73;;;18.00;99.90;;;;;;5095539;28;20520;-68
2023/01/04 14:12:02;;;;;;;2.53;0.83;;;18.00;99.90;;;;;;5094723;28;20317;-68
2023/01/04 14:14:37;;;;;;;3.90;0.83;;;17.90;99.90;;;;;;5083240;28;20189;-69
2023/01/04 14:17:12;;;;;;;3.57;0.70;;;17.90;99.90;;;;;;5075228;28;20211;-70
2023/01/04 14:19:42;;;;;;;4.23;0.87;;;17.90;99.90;;;;;;5077420;28;20187;-68